createdAt,value
2023-04-10T00:00:31.481Z,102388.66
2023-04-10T00:03:01.424Z,102389.75
2023-04-10T00:05:29.543Z,102380.19
2023-04-10T00:07:57.393Z,102373.63
2023-04-10T00:10:26.512Z,102388.47
2023-04-10T00:12:56.692Z,102375.19
2023-04-10T00:15:24.779Z,102373.38
2023-04-10T00:17:55.193Z,102370.22
2023-04-10T00:20:23.651Z,102366.56
2023-04-10T00:22:51.478Z,102369.38
2023-04-10T00:25:19.608Z,102378.72
2023-04-10T00:27:47.458Z,102367.16
2023-04-10T00:30:16.995Z,102364.97
2023-04-10T00:32:45.021Z,102357.66
2023-04-10T00:35:12.852Z,102359.47
2023-04-10T00:37:41.635Z,102359.47
2023-04-10T00:40:10.305Z,102356.72
2023-04-10T00:42:38.399Z,102353.25
2023-04-10T00:45:08.516Z,102348.66
2023-04-10T00:47:38.747Z,102347.25
2023-04-10T00:50:07.776Z,102348.53
2023-04-10T00:52:36.302Z,102341.09
2023-04-10T00:55:04.933Z,102343.03
2023-04-10T00:57:34.385Z,102339.03
2023-04-10T01:00:03.017Z,102347.63
2023-04-10T01:02:32.294Z,102343.06
2023-04-10T01:05:02.295Z,102346.69
2023-04-10T01:07:46.494Z,102340.91
2023-04-10T01:10:19.597Z,102341.41
2023-04-10T01:13:00.948Z,102343.06
2023-04-10T01:15:32.893Z,102343.22
2023-04-10T01:18:05.576Z,102340.41
2023-04-10T01:20:39.307Z,102343.88
2023-04-10T01:23:28.713Z,102336.28
2023-04-10T01:26:00.101Z,102341.41
2023-04-10T01:28:53.223Z,102344.81
2023-04-10T01:31:27.347Z,102346.81
2023-04-10T01:34:01.163Z,102345.22
2023-04-10T01:36:37.125Z,102345.38
2023-04-10T01:39:06.742Z,102349.41
2023-04-10T01:41:35.196Z,102352.16
2023-04-10T01:44:07.089Z,102347.50
2023-04-10T01:46:35.285Z,102341.78
2023-04-10T01:49:04.252Z,102339.31
2023-04-10T01:51:35.430Z,102330.78
2023-04-10T01:54:10.120Z,102334.41
2023-04-10T01:56:39.526Z,102334.84
2023-04-10T01:59:08.991Z,102334.09
2023-04-10T02:01:37.002Z,102332.59
2023-04-10T02:04:05.069Z,102339.38
2023-04-10T02:06:49.573Z,102345.38
2023-04-10T02:09:22.950Z,102341.59
2023-04-10T02:11:56.026Z,102341.69
2023-04-10T02:14:28.515Z,102337.31
2023-04-10T02:16:57.459Z,102334.31
2023-04-10T02:19:28.059Z,102334.91
2023-04-10T02:21:58.064Z,102327.88
2023-04-10T02:24:28.052Z,102331.78
2023-04-10T02:26:55.895Z,102332.91
2023-04-10T02:29:25.930Z,102328.13
2023-04-10T02:31:54.004Z,102331.78
2023-04-10T02:34:21.987Z,102333.97
2023-04-10T02:36:49.814Z,102336.31
2023-04-10T02:39:17.667Z,102336.16
2023-04-10T02:41:51.842Z,102342.59
2023-04-10T02:44:19.782Z,102340.84
2023-04-10T02:46:49.096Z,102333.97
2023-04-10T02:49:17.840Z,102346.69
2023-04-10T02:51:46.167Z,102356.13
2023-04-10T02:54:14.199Z,102341.72
2023-04-10T02:56:43.707Z,102352.41
2023-04-10T02:59:11.567Z,102350.06
2023-04-10T03:01:40.805Z,102350.06
2023-04-10T03:04:10.390Z,102343.28
2023-04-10T03:06:40.929Z,102347.63
2023-04-10T03:09:08.899Z,102349.78
2023-04-10T03:11:36.820Z,102347.56
2023-04-10T03:14:05.724Z,102361.28
2023-04-10T03:16:33.721Z,102349.16
2023-04-10T03:19:04.280Z,102351.63
2023-04-10T03:21:33.829Z,102354.84
2023-04-10T03:24:02.753Z,102350.44
2023-04-10T03:26:30.743Z,102340.91
2023-04-10T03:28:58.914Z,102351.44
2023-04-10T03:31:26.793Z,102340.09
2023-04-10T03:33:58.518Z,102341.56
2023-04-10T03:36:27.451Z,102341.09
2023-04-10T03:38:56.763Z,102347.66
2023-04-10T03:41:25.757Z,102346.91
2023-04-10T03:43:54.315Z,102344.78
2023-04-10T03:46:22.781Z,102349.88
2023-04-10T03:48:53.800Z,102349.56
2023-04-10T03:51:23.461Z,102350.84
2023-04-10T03:53:52.308Z,102352.72
2023-04-10T03:56:22.574Z,102341.63
2023-04-10T03:58:50.613Z,102355.03
2023-04-10T04:01:18.503Z,102347.22
2023-04-10T04:03:58.581Z,102348.63
2023-04-10T04:06:56.065Z,102352.72
2023-04-10T04:09:26.545Z,102347.38
2023-04-10T04:12:06.125Z,102351.91
2023-04-10T04:14:57.706Z,102345.13
2023-04-10T04:17:46.290Z,102340.91
2023-04-10T04:20:32.894Z,102355.63
2023-04-10T04:23:03.509Z,102347.34
2023-04-10T04:25:52.700Z,102351.38
2023-04-10T04:28:40.579Z,102355.09
2023-04-10T04:31:17.308Z,102345.78
2023-04-10T04:34:03.587Z,102348.31
2023-04-10T04:37:05.447Z,102355.22
2023-04-10T04:39:41.591Z,102349.38
2023-04-10T04:42:41.567Z,102347.78
2023-04-10T04:45:18.225Z,102341.31
2023-04-10T04:48:06.277Z,102347.91
2023-04-10T04:50:56.951Z,102353.13
2023-04-10T04:53:41.547Z,102348.63
2023-04-10T04:56:27.775Z,102343.91
2023-04-10T04:59:24.774Z,102347.38
2023-04-10T05:02:22.499Z,102351.56
2023-04-10T05:05:10.263Z,102346.09
2023-04-10T05:07:56.500Z,102348.72
2023-04-10T05:10:46.553Z,102344.25
2023-04-10T05:13:43.549Z,102339.34
2023-04-10T05:16:34.314Z,102344.59
2023-04-10T05:19:18.688Z,102344.47
2023-04-10T05:22:15.834Z,102354.94
2023-04-10T05:25:05.618Z,102348.38
2023-04-10T05:27:42.236Z,102343.91
2023-04-10T05:30:35.928Z,102351.97
2023-04-10T05:33:12.198Z,102352.91
2023-04-10T05:36:05.889Z,102351.88
2023-04-10T05:38:41.108Z,102354.19
2023-04-10T05:41:27.749Z,102353.31
2023-04-10T05:44:18.464Z,102337.59
2023-04-10T05:47:06.105Z,102339.28
2023-04-10T05:49:39.576Z,102341.00
2023-04-10T05:52:17.772Z,102332.22
2023-04-10T05:54:51.831Z,102331.88
2023-04-10T05:57:38.063Z,102332.28
2023-04-10T06:00:28.512Z,102321.09
2023-04-10T06:03:30.578Z,102319.78
2023-04-10T06:06:03.440Z,102325.97
2023-04-10T06:08:34.689Z,102326.00
2023-04-10T06:11:02.718Z,102323.16
2023-04-10T06:13:33.377Z,102321.78
2023-04-10T06:16:03.110Z,102323.19
2023-04-10T06:18:32.328Z,102323.28
2023-04-10T06:21:02.021Z,102318.75
2023-04-10T06:23:30.550Z,102315.44
2023-04-10T06:26:00.127Z,102294.91
2023-04-10T06:28:28.195Z,102311.22
2023-04-10T06:31:03.420Z,102307.81
2023-04-10T06:33:36.618Z,102302.09
2023-04-10T06:36:06.947Z,102297.13
2023-04-10T06:38:39.876Z,102312.53
2023-04-10T06:41:10.437Z,102299.25
2023-04-10T06:43:41.188Z,102314.25
2023-04-10T06:46:09.123Z,102304.09
2023-04-10T06:48:36.924Z,102302.78
2023-04-10T06:51:05.285Z,102318.06
2023-04-10T06:53:33.160Z,102323.72
2023-04-10T06:56:03.423Z,102315.09
2023-04-10T06:58:33.021Z,102310.06
2023-04-10T07:01:04.435Z,102303.94
2023-04-10T07:03:33.795Z,102297.84
2023-04-10T07:06:03.192Z,102299.09
2023-04-10T07:08:31.156Z,102300.88
2023-04-10T07:10:59.127Z,102300.66
2023-04-10T07:13:27.008Z,102301.44
2023-04-10T07:15:56.267Z,102302.81
2023-04-10T07:18:24.127Z,102301.69
2023-04-10T07:20:52.430Z,102294.66
2023-04-10T07:23:20.488Z,102299.41
2023-04-10T07:25:48.355Z,102300.47
2023-04-10T07:28:16.255Z,102296.47
2023-04-10T07:30:44.094Z,102302.97
2023-04-10T07:33:13.563Z,102302.25
2023-04-10T07:35:41.668Z,102305.06
2023-04-10T07:38:09.541Z,102290.38
2023-04-10T07:40:37.368Z,102282.94
2023-04-10T07:43:05.354Z,102279.28
2023-04-10T07:45:33.712Z,102276.16
2023-04-10T07:48:02.702Z,102276.47
2023-04-10T07:50:31.963Z,102275.13
2023-04-10T07:53:03.459Z,102276.41
2023-04-10T07:55:31.422Z,102271.84
2023-04-10T07:57:59.300Z,102275.50
2023-04-10T08:00:27.115Z,102265.00
2023-04-10T08:02:55.208Z,102261.78
2023-04-10T08:05:23.379Z,102249.75
2023-04-10T08:07:52.700Z,102260.13
2023-04-10T08:10:20.627Z,102249.81
2023-04-10T08:12:48.484Z,102248.44
2023-04-10T08:15:16.330Z,102258.28
2023-04-10T08:17:44.212Z,102248.94
2023-04-10T08:20:13.162Z,102247.16
2023-04-10T08:22:41.036Z,102245.72
2023-04-10T08:25:11.140Z,102251.41
2023-04-10T08:27:39.032Z,102243.94
2023-04-10T08:30:08.230Z,102245.03
2023-04-10T08:32:37.486Z,102248.19
2023-04-10T08:35:06.079Z,102244.38
2023-04-10T08:37:33.916Z,102242.16
2023-04-10T08:40:01.744Z,102242.53
2023-04-10T08:42:33.459Z,102247.06
2023-04-10T08:45:02.486Z,102235.34
2023-04-10T08:47:36.588Z,102229.25
2023-04-10T08:50:08.606Z,102235.78
2023-04-10T08:52:43.805Z,102231.94
2023-04-10T08:55:14.384Z,102235.22
2023-04-10T08:57:50.800Z,102221.53
2023-04-10T09:00:23.559Z,102226.06
2023-04-10T09:02:57.945Z,102212.59
2023-04-10T09:05:27.950Z,102212.47
2023-04-10T09:07:55.926Z,102214.34
2023-04-10T09:10:23.949Z,102202.75
2023-04-10T09:12:53.682Z,102203.63
2023-04-10T09:15:21.565Z,102190.63
2023-04-10T09:18:00.350Z,102186.28
2023-04-10T09:20:31.240Z,102190.25
2023-04-10T09:22:59.345Z,102184.72
2023-04-10T09:25:33.944Z,102189.13
2023-04-10T09:28:05.123Z,102182.69
2023-04-10T09:30:37.791Z,102179.22
2023-04-10T09:33:23.548Z,102175.47
2023-04-10T09:35:51.883Z,102170.53
2023-04-10T09:38:21.104Z,102169.13
2023-04-10T09:40:49.855Z,102161.97
2023-04-10T09:43:24.325Z,102167.13
2023-04-10T09:45:54.147Z,102152.53
2023-04-10T09:48:22.885Z,102149.72
2023-04-10T09:50:51.414Z,102154.69
2023-04-10T09:53:21.168Z,102146.16
2023-04-10T09:55:50.342Z,102145.44
2023-04-10T09:58:19.032Z,102133.41
2023-04-10T10:00:49.812Z,102130.25
2023-04-10T10:03:19.687Z,102123.34
2023-04-10T10:05:50.424Z,102124.75
2023-04-10T10:08:18.939Z,102114.22
2023-04-10T10:10:49.003Z,102119.09
2023-04-10T10:13:21.590Z,102108.50
2023-04-10T10:15:59.430Z,102116.72
2023-04-10T10:18:38.334Z,102110.34
2023-04-10T10:21:06.990Z,102121.41
2023-04-10T10:23:35.408Z,102113.06
2023-04-10T10:26:06.706Z,102108.84
2023-04-10T10:28:35.002Z,102100.34
2023-04-10T10:31:05.843Z,102098.06
2023-04-10T10:33:36.986Z,102102.25
2023-04-10T10:36:06.044Z,102092.34
2023-04-10T10:38:34.680Z,102085.09
2023-04-10T10:41:10.479Z,102085.19
2023-04-10T10:43:51.775Z,102079.13
2023-04-10T10:46:30.349Z,102080.81
2023-04-10T10:48:58.780Z,102071.28
2023-04-10T10:51:44.386Z,102072.38
2023-04-10T10:54:32.459Z,102062.00
2023-04-10T10:57:01.048Z,102061.28
2023-04-10T10:59:56.775Z,102058.25
2023-04-10T11:02:26.265Z,102048.03
2023-04-10T11:04:54.201Z,102054.91
2023-04-10T11:07:22.202Z,102050.97
2023-04-10T11:09:54.616Z,102046.97
2023-04-10T11:12:24.452Z,102040.88
2023-04-10T11:15:00.339Z,102027.03
2023-04-10T11:17:52.139Z,102032.28
2023-04-10T11:20:22.079Z,102033.56
2023-04-10T11:23:12.677Z,102029.63
2023-04-10T11:25:51.304Z,102026.59
2023-04-10T11:28:40.764Z,102023.44
2023-04-10T11:31:19.711Z,102012.41
2023-04-10T11:33:50.029Z,102010.97
2023-04-10T11:36:18.649Z,102000.06
2023-04-10T11:39:00.450Z,102005.97
2023-04-10T11:41:30.644Z,101999.41
2023-04-10T11:43:59.390Z,101994.28
2023-04-10T11:46:27.572Z,101989.28
2023-04-10T11:48:58.495Z,101986.88
2023-04-10T11:51:27.234Z,101989.69
2023-04-10T11:54:06.214Z,101984.47
2023-04-10T11:56:34.154Z,101975.53
2023-04-10T11:59:02.677Z,101981.66
2023-04-10T12:01:30.573Z,101966.19
2023-04-10T12:04:01.079Z,101972.59
2023-04-10T12:06:29.561Z,101967.25
2023-04-10T12:08:57.764Z,101964.50
2023-04-10T12:11:28.709Z,101954.31
2023-04-10T12:13:58.881Z,101955.72
2023-04-10T12:16:27.420Z,101947.56
2023-04-10T12:18:56.199Z,101946.59
2023-04-10T12:21:26.261Z,101944.84
2023-04-10T12:23:54.299Z,101940.63
2023-04-10T12:26:22.247Z,101943.50
2023-04-10T12:28:54.659Z,101934.28
2023-04-10T12:31:29.078Z,101933.84
2023-04-10T12:33:58.055Z,101937.13
2023-04-10T12:36:30.163Z,101909.44
2023-04-10T12:38:58.766Z,101921.09
2023-04-10T12:41:28.204Z,101917.59
2023-04-10T12:44:08.226Z,101907.81
2023-04-10T12:46:36.716Z,101902.22
2023-04-10T12:49:13.153Z,101901.88
2023-04-10T12:51:46.670Z,101895.22
2023-04-10T12:54:29.324Z,101893.66
2023-04-10T12:56:57.694Z,101896.88
2023-04-10T12:59:26.477Z,101885.88
2023-04-10T13:01:55.161Z,101876.06
2023-04-10T13:04:23.959Z,101867.78
2023-04-10T13:06:53.758Z,101870.47
2023-04-10T13:09:21.854Z,101872.81
2023-04-10T13:11:51.670Z,101861.66
2023-04-10T13:14:20.103Z,101863.69
2023-04-10T13:16:48.013Z,101847.75
2023-04-10T13:19:16.115Z,101843.72
2023-04-10T13:21:43.981Z,101832.03
2023-04-10T13:24:15.320Z,101832.16
2023-04-10T13:26:44.669Z,101828.31
2023-04-10T13:29:12.554Z,101822.53
2023-04-10T13:31:40.607Z,101812.38
2023-04-10T13:34:08.463Z,101807.81
2023-04-10T13:36:36.370Z,101800.81
2023-04-10T13:39:04.491Z,101806.22
2023-04-10T13:41:33.842Z,101786.72
2023-04-10T13:44:01.724Z,101784.00
2023-04-10T13:46:29.912Z,101772.97
2023-04-10T13:48:58.582Z,101769.88
2023-04-10T13:51:27.834Z,101772.00
2023-04-10T13:53:56.237Z,101773.75
2023-04-10T13:56:24.466Z,101768.69
2023-04-10T13:58:54.102Z,101767.00
2023-04-10T14:01:22.368Z,101764.06
2023-04-10T14:03:50.504Z,101754.88
2023-04-10T14:06:18.358Z,101744.72
2023-04-10T14:08:46.248Z,101734.78
2023-04-10T14:11:14.070Z,101744.53
2023-04-10T14:13:41.928Z,101736.75
2023-04-10T14:16:11.857Z,101735.78
2023-04-10T14:18:39.773Z,101739.31
2023-04-10T14:21:08.196Z,101731.16
2023-04-10T14:23:36.042Z,101734.53
2023-04-10T14:26:05.830Z,101731.69
2023-04-10T14:28:33.779Z,101724.50
2023-04-10T14:31:01.888Z,101726.75
2023-04-10T14:33:31.223Z,101714.09
2023-04-10T14:35:59.129Z,101706.28
2023-04-10T14:38:26.979Z,101710.53
2023-04-10T14:40:55.275Z,101716.28
2023-04-10T14:43:23.147Z,101692.50
2023-04-10T14:45:51.016Z,101698.16
2023-04-10T14:48:19.834Z,101696.41
2023-04-10T14:50:49.545Z,101688.94
2023-04-10T14:53:17.510Z,101689.97
2023-04-10T14:55:45.346Z,101674.81
2023-04-10T14:58:13.194Z,101690.13
2023-04-10T15:00:41.082Z,101686.81
2023-04-10T15:03:09.045Z,101677.72
2023-04-10T15:05:36.922Z,101666.59
2023-04-10T15:08:06.262Z,101668.84
2023-04-10T15:10:34.108Z,101662.88
2023-04-10T15:13:02.024Z,101659.47
2023-04-10T15:15:29.935Z,101645.06
2023-04-10T15:17:57.815Z,101644.13
2023-04-10T15:20:25.751Z,101643.56
2023-04-10T15:22:53.541Z,101649.72
2023-04-10T15:25:23.068Z,101643.13
2023-04-10T15:27:50.907Z,101641.88
2023-04-10T15:30:19.230Z,101642.97
2023-04-10T15:32:47.075Z,101632.31
2023-04-10T15:35:15.031Z,101619.97
2023-04-10T15:37:42.915Z,101612.72
2023-04-10T15:40:11.441Z,101604.41
2023-04-10T15:42:40.648Z,101608.69
2023-04-10T15:45:08.994Z,101608.16
2023-04-10T15:47:36.898Z,101603.97
2023-04-10T15:50:05.384Z,101607.38
2023-04-10T15:52:33.873Z,101596.75
2023-04-10T15:55:01.738Z,101588.31
2023-04-10T15:57:29.643Z,101583.88
2023-04-10T16:00:00.616Z,101583.28
2023-04-10T16:02:28.998Z,101574.22
2023-04-10T16:04:57.018Z,101568.28
2023-04-10T16:07:25.082Z,101565.81
2023-04-10T16:09:55.107Z,101566.13
2023-04-10T16:12:23.029Z,101552.94
2023-04-10T16:14:50.823Z,101540.88
2023-04-10T16:17:20.109Z,101538.31
2023-04-10T16:19:48.041Z,101532.91
2023-04-10T16:22:15.878Z,101532.91
2023-04-10T16:24:43.713Z,101537.59
2023-04-10T16:27:11.589Z,101524.94
2023-04-10T16:29:39.436Z,101529.13
2023-04-10T16:32:07.326Z,101522.09
2023-04-10T16:34:36.623Z,101515.69
2023-04-10T16:37:04.441Z,101514.72
2023-04-10T16:39:32.307Z,101510.09
2023-04-10T16:42:01.314Z,101510.09
2023-04-10T16:44:29.161Z,101503.50
2023-04-10T16:46:56.981Z,101495.69
2023-04-10T16:49:25.042Z,101500.91
2023-04-10T16:51:54.228Z,101495.53
2023-04-10T16:54:22.103Z,101497.38
2023-04-10T16:56:49.931Z,101487.19
2023-04-10T16:59:17.794Z,101488.19
2023-04-10T17:01:45.848Z,101492.97
2023-04-10T17:04:13.782Z,101482.69
2023-04-10T17:06:41.668Z,101475.66
2023-04-10T17:09:11.142Z,101460.44
2023-04-10T17:11:38.986Z,101463.72
2023-04-10T17:14:07.402Z,101451.81
2023-04-10T17:16:35.397Z,101454.31
2023-04-10T17:19:03.523Z,101451.63
2023-04-10T17:21:31.483Z,101451.34
2023-04-10T17:23:59.462Z,101451.22
2023-04-10T17:26:28.653Z,101449.22
2023-04-10T17:28:56.841Z,101441.53
2023-04-10T17:31:24.785Z,101433.03
2023-04-10T17:33:52.644Z,101435.53
2023-04-10T17:36:20.852Z,101429.84
2023-04-10T17:38:49.441Z,101430.13
2023-04-10T17:41:18.204Z,101427.19
2023-04-10T17:43:47.436Z,101417.75
2023-04-10T17:46:15.896Z,101406.66
2023-04-10T17:48:44.273Z,101404.50
2023-04-10T17:51:12.356Z,101406.41
2023-04-10T17:53:40.380Z,101408.09
2023-04-10T17:56:08.974Z,101393.88
2023-04-10T17:58:36.834Z,101399.88
2023-04-10T18:01:07.244Z,101395.28
2023-04-10T18:03:35.257Z,101390.75
2023-04-10T18:06:03.247Z,101394.72
2023-04-10T18:08:31.136Z,101383.06
2023-04-10T18:10:58.981Z,101387.63
2023-04-10T18:13:26.834Z,101388.94
2023-04-10T18:15:54.684Z,101395.44
2023-04-10T18:18:23.879Z,101386.91
2023-04-10T18:20:51.701Z,101387.47
2023-04-10T18:23:19.553Z,101385.94
2023-04-10T18:25:53.372Z,101381.09
2023-04-10T18:28:21.286Z,101385.63
2023-04-10T18:30:49.211Z,101379.13
2023-04-10T18:33:20.681Z,101386.78
2023-04-10T18:35:49.939Z,101383.38
2023-04-10T18:38:17.848Z,101379.22
2023-04-10T18:40:45.772Z,101381.53
2023-04-10T18:43:13.681Z,101380.09
2023-04-10T18:45:42.186Z,101373.81
2023-04-10T18:48:10.247Z,101369.81
2023-04-10T18:50:39.270Z,101369.16
2023-04-10T18:53:08.479Z,101360.19
2023-04-10T18:55:36.320Z,101360.19
2023-04-10T18:58:04.257Z,101355.19
2023-04-10T19:00:34.137Z,101350.38
2023-04-10T19:03:02.437Z,101344.84
2023-04-10T19:05:32.587Z,101346.38
2023-04-10T19:08:04.061Z,101337.88
2023-04-10T19:10:34.119Z,101333.72
2023-04-10T19:13:01.962Z,101329.91
2023-04-10T19:15:29.874Z,101334.81
2023-04-10T19:17:57.801Z,101334.88
2023-04-10T19:20:52.610Z,101331.13
2023-04-10T19:23:14.019Z,101330.00
2023-04-10T19:25:43.769Z,101324.97
2023-04-10T19:28:11.645Z,101317.50
2023-04-10T19:30:39.497Z,101317.50
2023-04-10T19:33:07.415Z,101305.78
2023-04-10T19:35:35.365Z,101300.75
2023-04-10T19:38:03.243Z,101303.94
2023-04-10T19:40:31.798Z,101296.19
2023-04-10T19:43:01.961Z,101300.47
2023-04-10T19:45:32.232Z,101286.25
2023-04-10T19:48:00.422Z,101290.63
2023-04-10T19:50:29.518Z,101292.38
2023-04-10T19:52:57.512Z,101282.31
2023-04-10T19:55:25.460Z,101286.63
2023-04-10T19:57:53.511Z,101274.09
2023-04-10T20:00:22.806Z,101275.66
2023-04-10T20:02:52.156Z,101269.78
2023-04-10T20:05:20.309Z,101259.59
2023-04-10T20:07:48.152Z,101258.19
2023-04-10T20:10:16.006Z,101260.75
2023-04-10T20:12:43.829Z,101240.19
2023-04-10T20:15:12.477Z,101241.91
2023-04-10T20:17:41.806Z,101233.19
2023-04-10T20:20:12.241Z,101221.22
2023-04-10T20:22:40.050Z,101216.16
2023-04-10T20:25:08.902Z,101225.09
2023-04-10T20:27:36.858Z,101221.72
2023-04-10T20:30:05.658Z,101222.22
2023-04-10T20:32:33.487Z,101214.25
2023-04-10T20:35:02.723Z,101206.13
2023-04-10T20:37:30.584Z,101197.09
2023-04-10T20:39:58.489Z,101191.81
2023-04-10T20:42:26.322Z,101197.38
2023-04-10T20:44:55.383Z,101193.53
2023-04-10T20:47:23.248Z,101196.22
2023-04-10T20:49:51.066Z,101196.91
2023-04-10T20:52:20.253Z,101200.09
2023-04-10T20:54:48.153Z,101187.19
2023-04-10T20:57:16.081Z,101198.03
2023-04-10T20:59:44.141Z,101203.09
2023-04-10T21:02:13.207Z,101200.63
2023-04-10T21:04:41.163Z,101197.38
2023-04-10T21:07:09.021Z,101188.75
2023-04-10T21:09:38.193Z,101176.69
2023-04-10T21:12:06.199Z,101179.53
2023-04-10T21:14:35.761Z,101171.91
2023-04-10T21:17:03.772Z,101173.69
2023-04-10T21:19:31.643Z,101170.53
2023-04-10T21:21:59.474Z,101176.63
2023-04-10T21:24:27.361Z,101166.44
2023-04-10T21:26:56.593Z,101172.09
2023-04-10T21:29:24.459Z,101176.22
2023-04-10T21:31:52.338Z,101158.94
2023-04-10T21:34:20.211Z,101161.19
2023-04-10T21:36:48.046Z,101160.41
2023-04-10T21:39:15.939Z,101160.56
2023-04-10T21:41:45.084Z,101151.56
2023-04-10T21:44:14.352Z,101150.91
2023-04-10T21:46:42.325Z,101146.63
2023-04-10T21:49:10.359Z,101140.00
2023-04-10T21:51:38.310Z,101128.47
2023-04-10T21:54:06.245Z,101120.06
2023-04-10T21:56:35.535Z,101118.00
2023-04-10T21:59:03.481Z,101110.03
2023-04-10T22:01:32.767Z,101112.72
2023-04-10T22:04:00.685Z,101114.56
2023-04-10T22:06:28.548Z,101109.72
2023-04-10T22:08:56.507Z,101109.06
2023-04-10T22:11:24.544Z,101098.53
2023-04-10T22:13:52.849Z,101105.72
2023-04-10T22:16:21.590Z,101089.03
2023-04-10T22:18:50.867Z,101086.63
2023-04-10T22:21:18.851Z,101095.09
2023-04-10T22:23:46.665Z,101078.44
2023-04-10T22:26:14.474Z,101075.91
2023-04-10T22:28:42.362Z,101073.31
2023-04-10T22:31:16.375Z,101058.63
2023-04-10T22:33:44.416Z,101056.47
2023-04-10T22:36:14.104Z,101050.53
2023-04-10T22:38:42.029Z,101048.22
2023-04-10T22:41:10.870Z,101046.97
2023-04-10T22:43:38.767Z,101048.25
2023-04-10T22:46:06.732Z,101042.81
2023-04-10T22:48:34.701Z,101045.47
2023-04-10T22:51:02.513Z,101046.16
2023-04-10T22:53:31.715Z,101043.34
2023-04-10T22:55:59.546Z,101048.81
2023-04-10T22:58:27.443Z,101050.81
2023-04-10T23:00:55.262Z,101035.75
2023-04-10T23:03:23.171Z,101039.78
2023-04-10T23:05:51.636Z,101027.13
2023-04-10T23:08:19.442Z,101022.28
2023-04-10T23:10:48.645Z,101021.34
2023-04-10T23:13:16.490Z,101014.38
2023-04-10T23:15:49.641Z,101010.75
2023-04-10T23:18:17.616Z,101008.69
2023-04-10T23:20:45.664Z,101002.88
2023-04-10T23:23:13.513Z,100993.81
2023-04-10T23:25:41.329Z,100991.22
2023-04-10T23:28:10.725Z,100984.94
2023-04-10T23:30:38.723Z,100976.66
2023-04-10T23:33:06.734Z,100962.47
2023-04-10T23:35:34.827Z,100963.69
2023-04-10T23:38:02.884Z,100949.50
2023-04-10T23:40:30.765Z,100943.13
2023-04-10T23:42:58.719Z,100941.19
2023-04-10T23:45:28.257Z,100940.75
2023-04-10T23:47:56.297Z,100932.06
2023-04-10T23:50:24.485Z,100929.25
2023-04-10T23:52:53.034Z,100922.06
2023-04-10T23:55:21.614Z,100919.53
2023-04-10T23:57:49.476Z,100903.63
